Terminal Aerodrome Forecast
Issued by NWS

Home | Current Version | Previous Version | Text Only | Print | Product List | Glossary On
Versions: 1 2 3 4 5 6 7 8 9 10 11 12 13 14 15 16 17 18 19 20 21 22 23 24 25 26 27 28 29 30 31 32
000
FTUS44 KOUN 221201 AAA
TAFLAW
TAF AMD
KLAW 221201Z 2212/2312 30007KT 2SM BR BKN004
      TEMPO 2212/2213 1/4SM FG VV002
     FM221600 33011KT P6SM SCT060
     FM221700 33015G22KT P6SM FEW100
     FM222300 30005KT P6SM BKN250=

USA.gov is the U.S. government's official web portal to all federal, state and local government web resources and services.